sensor_id;sensor_type;location;lat;lon;timestamp;P1;durP1;ratioP1;P2;durP2;ratioP2
12703;SDS011;6416;52.182;7.650;2023-02-19T00:02:24;5.43;;;4.90;;
12703;SDS011;6416;52.182;7.650;2023-02-19T00:04:49;7.60;;;4.93;;
12703;SDS011;6416;52.182;7.650;2023-02-19T00:07:15;5.73;;;5.13;;
12703;SDS011;6416;52.182;7.650;2023-02-19T00:09:40;4.87;;;4.47;;
12703;SDS011;6416;52.182;7.650;2023-02-19T00:12:06;5.80;;;5.30;;
12703;SDS011;6416;52.182;7.650;2023-02-19T00:14:31;5.80;;;4.77;;
12703;SDS011;6416;52.182;7.650;2023-02-19T00:16:57;5.33;;;4.83;;
12703;SDS011;6416;52.182;7.650;2023-02-19T00:19:22;4.97;;;4.57;;
12703;SDS011;6416;52.182;7.650;2023-02-19T00:21:51;5.47;;;4.93;;
12703;SDS011;6416;52.182;7.650;2023-02-19T00:24:17;5.77;;;5.27;;
12703;SDS011;6416;52.182;7.650;2023-02-19T00:26:43;5.37;;;4.90;;
12703;SDS011;6416;52.182;7.650;2023-02-19T00:29:11;5.93;;;5.33;;
12703;SDS011;6416;52.182;7.650;2023-02-19T00:31:39;5.30;;;4.80;;
12703;SDS011;6416;52.182;7.650;2023-02-19T00:34:05;5.23;;;4.83;;
12703;SDS011;6416;52.182;7.650;2023-02-19T00:36:31;5.47;;;4.97;;
12703;SDS011;6416;52.182;7.650;2023-02-19T00:38:58;5.37;;;4.87;;
12703;SDS011;6416;52.182;7.650;2023-02-19T00:41:24;6.13;;;5.47;;
12703;SDS011;6416;52.182;7.650;2023-02-19T00:46:21;6.20;;;5.60;;
12703;SDS011;6416;52.182;7.650;2023-02-19T00:48:50;6.07;;;5.47;;
12703;SDS011;6416;52.182;7.650;2023-02-19T00:51:16;5.63;;;5.13;;
12703;SDS011;6416;52.182;7.650;2023-02-19T00:53:43;6.10;;;5.60;;
12703;SDS011;6416;52.182;7.650;2023-02-19T00:56:09;6.23;;;5.67;;
12703;SDS011;6416;52.182;7.650;2023-02-19T00:58:35;6.03;;;5.53;;
12703;SDS011;6416;52.182;7.650;2023-02-19T01:01:01;6.27;;;5.77;;
12703;SDS011;6416;52.182;7.650;2023-02-19T01:03:27;6.50;;;6.00;;
12703;SDS011;6416;52.182;7.650;2023-02-19T01:05:52;6.70;;;6.10;;
12703;SDS011;6416;52.182;7.650;2023-02-19T01:08:18;6.83;;;6.23;;
12703;SDS011;6416;52.182;7.650;2023-02-19T01:10:43;6.70;;;6.10;;
12703;SDS011;6416;52.182;7.650;2023-02-19T01:13:10;7.83;;;7.13;;
12703;SDS011;6416;52.182;7.650;2023-02-19T01:15:35;7.20;;;6.57;;
12703;SDS011;6416;52.182;7.650;2023-02-19T01:18:01;6.83;;;6.23;;
12703;SDS011;6416;52.182;7.650;2023-02-19T01:20:26;7.07;;;6.37;;
12703;SDS011;6416;52.182;7.650;2023-02-19T01:22:52;8.07;;;7.23;;
12703;SDS011;6416;52.182;7.650;2023-02-19T01:25:18;7.43;;;6.73;;
12703;SDS011;6416;52.182;7.650;2023-02-19T01:27:43;8.17;;;6.60;;
12703;SDS011;6416;52.182;7.650;2023-02-19T01:30:09;7.27;;;6.57;;
12703;SDS011;6416;52.182;7.650;2023-02-19T01:32:35;6.90;;;6.30;;
12703;SDS011;6416;52.182;7.650;2023-02-19T01:35:00;7.97;;;6.60;;
12703;SDS011;6416;52.182;7.650;2023-02-19T01:37:26;7.30;;;6.67;;
12703;SDS011;6416;52.182;7.650;2023-02-19T01:39:52;7.47;;;6.77;;
12703;SDS011;6416;52.182;7.650;2023-02-19T01:42:17;7.93;;;7.13;;
12703;SDS011;6416;52.182;7.650;2023-02-19T01:47:11;6.93;;;6.27;;
12703;SDS011;6416;52.182;7.650;2023-02-19T01:49:43;7.37;;;6.67;;
12703;SDS011;6416;52.182;7.650;2023-02-19T01:52:13;8.17;;;7.37;;
12703;SDS011;6416;52.182;7.650;2023-02-19T01:54:44;8.73;;;7.83;;
12703;SDS011;6416;52.182;7.650;2023-02-19T01:57:12;7.87;;;7.07;;
12703;SDS011;6416;52.182;7.650;2023-02-19T01:59:43;9.17;;;7.20;;
12703;SDS011;6416;52.182;7.650;2023-02-19T02:02:09;8.07;;;7.27;;
12703;SDS011;6416;52.182;7.650;2023-02-19T02:04:35;9.87;;;8.40;;
12703;SDS011;6416;52.182;7.650;2023-02-19T02:07:02;8.83;;;7.93;;
12703;SDS011;6416;52.182;7.650;2023-02-19T02:09:29;9.63;;;8.53;;
12703;SDS011;6416;52.182;7.650;2023-02-19T02:11:55;8.97;;;8.07;;
12703;SDS011;6416;52.182;7.650;2023-02-19T02:14:21;10.17;;;8.83;;
12703;SDS011;6416;52.182;7.650;2023-02-19T02:16:58;9.70;;;8.57;;
12703;SDS011;6416;52.182;7.650;2023-02-19T02:33:46;10.57;;;8.40;;
12703;SDS011;6416;52.182;7.650;2023-02-19T02:36:28;11.27;;;8.77;;
12703;SDS011;6416;52.182;7.650;2023-02-19T02:39:02;9.77;;;8.50;;
12703;SDS011;6416;52.182;7.650;2023-02-19T02:41:31;10.63;;;9.43;;
12703;SDS011;6416;52.182;7.650;2023-02-19T02:43:57;10.17;;;9.13;;
12703;SDS011;6416;52.182;7.650;2023-02-19T02:46:25;9.97;;;8.77;;
12703;SDS011;6416;52.182;7.650;2023-02-19T02:48:55;11.73;;;8.90;;
12703;SDS011;6416;52.182;7.650;2023-02-19T02:51:23;11.03;;;8.83;;
12703;SDS011;6416;52.182;7.650;2023-02-19T02:53:56;9.80;;;8.80;;
12703;SDS011;6416;52.182;7.650;2023-02-19T02:56:26;10.93;;;8.70;;
12703;SDS011;6416;52.182;7.650;2023-02-19T02:58:53;12.67;;;9.10;;
12703;SDS011;6416;52.182;7.650;2023-02-19T03:01:24;9.47;;;8.37;;
12703;SDS011;6416;52.182;7.650;2023-02-19T03:04:00;10.40;;;8.77;;
12703;SDS011;6416;52.182;7.650;2023-02-19T03:06:30;10.33;;;8.30;;
12703;SDS011;6416;52.182;7.650;2023-02-19T03:09:01;12.10;;;8.83;;
12703;SDS011;6416;52.182;7.650;2023-02-19T03:11:33;8.77;;;7.70;;
12703;SDS011;6416;52.182;7.650;2023-02-19T03:14:07;7.80;;;6.63;;
12703;SDS011;6416;52.182;7.650;2023-02-19T03:16:36;10.10;;;7.47;;
12703;SDS011;6416;52.182;7.650;2023-02-19T03:19:04;8.87;;;7.13;;
12703;SDS011;6416;52.182;7.650;2023-02-19T03:21:35;8.07;;;6.90;;
12703;SDS011;6416;52.182;7.650;2023-02-19T03:24:03;7.23;;;6.53;;
12703;SDS011;6416;52.182;7.650;2023-02-19T03:26:31;7.07;;;6.37;;
12703;SDS011;6416;52.182;7.650;2023-02-19T03:28:57;6.80;;;6.17;;
12703;SDS011;6416;52.182;7.650;2023-02-19T03:31:25;8.33;;;6.67;;
12703;SDS011;6416;52.182;7.650;2023-02-19T03:33:54;7.20;;;6.50;;
12703;SDS011;6416;52.182;7.650;2023-02-19T03:36:23;7.43;;;6.37;;
12703;SDS011;6416;52.182;7.650;2023-02-19T03:39:04;8.23;;;6.37;;
12703;SDS011;6416;52.182;7.650;2023-02-19T03:41:34;7.57;;;6.17;;
12703;SDS011;6416;52.182;7.650;2023-02-19T03:44:17;6.30;;;5.70;;
12703;SDS011;6416;52.182;7.650;2023-02-19T03:47:04;6.37;;;5.40;;
12703;SDS011;6416;52.182;7.650;2023-02-19T03:49:38;8.07;;;6.33;;
12703;SDS011;6416;52.182;7.650;2023-02-19T03:54:40;6.03;;;5.43;;
12703;SDS011;6416;52.182;7.650;2023-02-19T03:57:18;6.70;;;4.87;;
12703;SDS011;6416;52.182;7.650;2023-02-19T04:02:44;7.20;;;5.20;;
12703;SDS011;6416;52.182;7.650;2023-02-19T04:05:17;6.67;;;5.10;;
12703;SDS011;6416;52.182;7.650;2023-02-19T04:07:47;5.80;;;4.80;;
12703;SDS011;6416;52.182;7.650;2023-02-19T04:10:16;5.63;;;5.00;;
12703;SDS011;6416;52.182;7.650;2023-02-19T04:12:44;7.87;;;5.57;;
12703;SDS011;6416;52.182;7.650;2023-02-19T04:15:16;6.33;;;5.33;;
12703;SDS011;6416;52.182;7.650;2023-02-19T04:17:49;6.07;;;5.47;;
12703;SDS011;6416;52.182;7.650;2023-02-19T04:20:29;7.07;;;5.17;;
12703;SDS011;6416;52.182;7.650;2023-02-19T04:22:58;6.80;;;5.37;;
12703;SDS011;6416;52.182;7.650;2023-02-19T04:25:23;5.50;;;5.03;;
12703;SDS011;6416;52.182;7.650;2023-02-19T04:27:51;7.37;;;5.27;;
12703;SDS011;6416;52.182;7.650;2023-02-19T04:30:16;7.07;;;5.13;;
12703;SDS011;6416;52.182;7.650;2023-02-19T04:32:42;5.57;;;5.00;;
12703;SDS011;6416;52.182;7.650;2023-02-19T04:35:07;6.70;;;5.23;;
12703;SDS011;6416;52.182;7.650;2023-02-19T04:37:33;9.23;;;5.30;;
12703;SDS011;6416;52.182;7.650;2023-02-19T04:39:58;5.30;;;4.80;;
12703;SDS011;6416;52.182;7.650;2023-02-19T04:42:24;8.70;;;5.73;;
12703;SDS011;6416;52.182;7.650;2023-02-19T04:44:49;6.03;;;4.77;;
12703;SDS011;6416;52.182;7.650;2023-02-19T04:47:15;5.60;;;5.10;;
12703;SDS011;6416;52.182;7.650;2023-02-19T04:49:40;5.70;;;5.10;;
12703;SDS011;6416;52.182;7.650;2023-02-19T04:52:06;5.97;;;4.47;;
12703;SDS011;6416;52.182;7.650;2023-02-19T04:54:31;5.87;;;5.00;;
12703;SDS011;6416;52.182;7.650;2023-02-19T04:56:57;4.83;;;4.20;;
12703;SDS011;6416;52.182;7.650;2023-02-19T04:59:22;5.47;;;4.73;;
12703;SDS011;6416;52.182;7.650;2023-02-19T05:01:47;5.37;;;4.13;;
12703;SDS011;6416;52.182;7.650;2023-02-19T05:04:13;6.27;;;4.47;;
12703;SDS011;6416;52.182;7.650;2023-02-19T05:06:38;4.93;;;4.37;;
12703;SDS011;6416;52.182;7.650;2023-02-19T05:09:04;5.43;;;4.03;;
12703;SDS011;6416;52.182;7.650;2023-02-19T05:11:29;5.50;;;4.10;;
12703;SDS011;6416;52.182;7.650;2023-02-19T05:13:55;4.80;;;3.77;;
12703;SDS011;6416;52.182;7.650;2023-02-19T05:16:20;5.03;;;3.97;;
12703;SDS011;6416;52.182;7.650;2023-02-19T05:18:46;3.77;;;3.40;;
12703;SDS011;6416;52.182;7.650;2023-02-19T05:21:12;5.53;;;3.83;;
12703;SDS011;6416;52.182;7.650;2023-02-19T05:23:38;5.57;;;3.20;;
12703;SDS011;6416;52.182;7.650;2023-02-19T05:26:08;4.87;;;3.80;;
12703;SDS011;6416;52.182;7.650;2023-02-19T05:28:44;4.07;;;3.73;;
12703;SDS011;6416;52.182;7.650;2023-02-19T05:31:11;4.17;;;3.60;;
12703;SDS011;6416;52.182;7.650;2023-02-19T05:33:37;4.47;;;3.70;;
12703;SDS011;6416;52.182;7.650;2023-02-19T05:36:06;3.80;;;3.33;;
12703;SDS011;6416;52.182;7.650;2023-02-19T05:38:34;3.67;;;3.37;;
12703;SDS011;6416;52.182;7.650;2023-02-19T05:41:33;4.33;;;3.50;;
12703;SDS011;6416;52.182;7.650;2023-02-19T05:43:53;4.57;;;3.77;;
12703;SDS011;6416;52.182;7.650;2023-02-19T05:46:20;4.47;;;3.30;;
12703;SDS011;6416;52.182;7.650;2023-02-19T05:48:47;5.13;;;3.70;;
12703;SDS011;6416;52.182;7.650;2023-02-19T05:51:14;4.30;;;3.50;;
12703;SDS011;6416;52.182;7.650;2023-02-19T05:53:41;4.63;;;3.70;;
12703;SDS011;6416;52.182;7.650;2023-02-19T05:56:23;4.40;;;3.70;;
12703;SDS011;6416;52.182;7.650;2023-02-19T05:58:57;5.17;;;4.13;;
12703;SDS011;6416;52.182;7.650;2023-02-19T06:01:25;3.90;;;3.53;;
12703;SDS011;6416;52.182;7.650;2023-02-19T06:03:52;4.53;;;3.60;;
12703;SDS011;6416;52.182;7.650;2023-02-19T06:06:18;4.30;;;3.70;;
12703;SDS011;6416;52.182;7.650;2023-02-19T06:08:44;5.17;;;3.53;;
12703;SDS011;6416;52.182;7.650;2023-02-19T06:11:10;4.57;;;3.60;;
12703;SDS011;6416;52.182;7.650;2023-02-19T06:13:35;4.83;;;3.77;;
12703;SDS011;6416;52.182;7.650;2023-02-19T06:16:04;3.73;;;3.43;;
12703;SDS011;6416;52.182;7.650;2023-02-19T06:18:31;5.97;;;3.43;;
12703;SDS011;6416;52.182;7.650;2023-02-19T06:21:04;4.93;;;3.83;;
12703;SDS011;6416;52.182;7.650;2023-02-19T06:23:31;5.63;;;3.87;;
12703;SDS011;6416;52.182;7.650;2023-02-19T06:26:30;5.43;;;4.00;;
12703;SDS011;6416;52.182;7.650;2023-02-19T06:28:50;4.40;;;3.67;;
12703;SDS011;6416;52.182;7.650;2023-02-19T06:31:17;4.60;;;3.87;;
12703;SDS011;6416;52.182;7.650;2023-02-19T06:33:44;5.17;;;3.97;;
12703;SDS011;6416;52.182;7.650;2023-02-19T06:36:11;5.93;;;4.00;;
12703;SDS011;6416;52.182;7.650;2023-02-19T06:38:41;5.40;;;3.53;;
12703;SDS011;6416;52.182;7.650;2023-02-19T06:41:07;3.57;;;3.27;;
12703;SDS011;6416;52.182;7.650;2023-02-19T06:43:33;4.93;;;3.53;;
12703;SDS011;6416;52.182;7.650;2023-02-19T06:46:02;3.97;;;3.30;;
12703;SDS011;6416;52.182;7.650;2023-02-19T06:48:30;4.40;;;3.47;;
12703;SDS011;6416;52.182;7.650;2023-02-19T06:50:56;3.73;;;3.23;;
12703;SDS011;6416;52.182;7.650;2023-02-19T06:53:22;4.83;;;3.57;;
12703;SDS011;6416;52.182;7.650;2023-02-19T06:55:54;3.80;;;3.03;;
12703;SDS011;6416;52.182;7.650;2023-02-19T06:58:30;3.37;;;2.37;;
12703;SDS011;6416;52.182;7.650;2023-02-19T07:00:57;2.77;;;2.57;;
12703;SDS011;6416;52.182;7.650;2023-02-19T07:03:22;3.00;;;2.70;;
12703;SDS011;6416;52.182;7.650;2023-02-19T07:05:48;1.97;;;1.80;;
12703;SDS011;6416;52.182;7.650;2023-02-19T07:08:14;1.10;;;1.10;;
12703;SDS011;6416;52.182;7.650;2023-02-19T07:10:39;1.10;;;1.00;;
12703;SDS011;6416;52.182;7.650;2023-02-19T07:13:05;1.00;;;1.00;;
12703;SDS011;6416;52.182;7.650;2023-02-19T07:15:30;0.83;;;0.83;;
12703;SDS011;6416;52.182;7.650;2023-02-19T07:17:55;1.00;;;1.00;;
12703;SDS011;6416;52.182;7.650;2023-02-19T07:20:21;1.10;;;1.10;;
12703;SDS011;6416;52.182;7.650;2023-02-19T07:22:46;1.10;;;1.10;;
12703;SDS011;6416;52.182;7.650;2023-02-19T07:25:12;1.30;;;1.20;;
12703;SDS011;6416;52.182;7.650;2023-02-19T07:27:37;1.60;;;1.50;;
12703;SDS011;6416;52.182;7.650;2023-02-19T07:30:03;1.83;;;1.73;;
12703;SDS011;6416;52.182;7.650;2023-02-19T07:32:28;1.93;;;1.83;;
12703;SDS011;6416;52.182;7.650;2023-02-19T07:34:54;2.10;;;2.00;;
12703;SDS011;6416;52.182;7.650;2023-02-19T07:37:19;2.03;;;1.93;;
12703;SDS011;6416;52.182;7.650;2023-02-19T07:39:45;2.03;;;1.93;;
12703;SDS011;6416;52.182;7.650;2023-02-19T07:42:10;1.80;;;1.70;;
12703;SDS011;6416;52.182;7.650;2023-02-19T07:44:36;2.00;;;1.90;;
12703;SDS011;6416;52.182;7.650;2023-02-19T07:47:01;1.80;;;1.70;;
12703;SDS011;6416;52.182;7.650;2023-02-19T07:49:27;1.63;;;1.53;;
12703;SDS011;6416;52.182;7.650;2023-02-19T07:51:52;1.60;;;1.50;;
12703;SDS011;6416;52.182;7.650;2023-02-19T07:54:18;1.70;;;1.60;;
12703;SDS011;6416;52.182;7.650;2023-02-19T07:56:43;1.60;;;1.50;;
12703;SDS011;6416;52.182;7.650;2023-02-19T07:59:08;1.37;;;1.27;;
12703;SDS011;6416;52.182;7.650;2023-02-19T08:01:34;1.47;;;1.37;;
12703;SDS011;6416;52.182;7.650;2023-02-19T08:03:59;1.40;;;1.30;;
12703;SDS011;6416;52.182;7.650;2023-02-19T08:06:25;1.60;;;1.50;;
12703;SDS011;6416;52.182;7.650;2023-02-19T08:08:50;1.70;;;1.57;;
12703;SDS011;6416;52.182;7.650;2023-02-19T08:11:16;1.70;;;1.60;;
12703;SDS011;6416;52.182;7.650;2023-02-19T08:13:41;1.70;;;1.60;;
12703;SDS011;6416;52.182;7.650;2023-02-19T08:16:10;1.63;;;1.53;;
12703;SDS011;6416;52.182;7.650;2023-02-19T08:18:37;1.80;;;1.70;;
12703;SDS011;6416;52.182;7.650;2023-02-19T08:21:03;1.40;;;1.30;;
12703;SDS011;6416;52.182;7.650;2023-02-19T08:23:29;1.60;;;1.50;;
12703;SDS011;6416;52.182;7.650;2023-02-19T08:25:57;1.60;;;1.50;;
12703;SDS011;6416;52.182;7.650;2023-02-19T08:28:24;1.77;;;1.67;;
12703;SDS011;6416;52.182;7.650;2023-02-19T08:30:50;1.90;;;1.80;;
12703;SDS011;6416;52.182;7.650;2023-02-19T08:33:16;2.20;;;2.00;;
12703;SDS011;6416;52.182;7.650;2023-02-19T08:35:43;2.40;;;2.20;;
12703;SDS011;6416;52.182;7.650;2023-02-19T08:38:09;2.20;;;2.00;;
12703;SDS011;6416;52.182;7.650;2023-02-19T08:40:36;2.07;;;1.97;;
12703;SDS011;6416;52.182;7.650;2023-02-19T08:43:06;1.93;;;1.83;;
12703;SDS011;6416;52.182;7.650;2023-02-19T08:45:40;2.57;;;2.37;;
12703;SDS011;6416;52.182;7.650;2023-02-19T08:48:08;2.40;;;2.20;;
12703;SDS011;6416;52.182;7.650;2023-02-19T08:50:36;2.30;;;2.10;;
12703;SDS011;6416;52.182;7.650;2023-02-19T08:53:03;2.50;;;2.30;;
12703;SDS011;6416;52.182;7.650;2023-02-19T08:55:29;2.50;;;2.30;;
12703;SDS011;6416;52.182;7.650;2023-02-19T08:57:55;2.50;;;2.30;;
12703;SDS011;6416;52.182;7.650;2023-02-19T09:00:20;2.30;;;2.10;;
12703;SDS011;6416;52.182;7.650;2023-02-19T09:02:46;2.30;;;2.10;;
12703;SDS011;6416;52.182;7.650;2023-02-19T09:05:13;2.13;;;2.00;;
12703;SDS011;6416;52.182;7.650;2023-02-19T09:07:39;2.30;;;2.10;;
12703;SDS011;6416;52.182;7.650;2023-02-19T09:10:05;2.30;;;2.10;;
12703;SDS011;6416;52.182;7.650;2023-02-19T09:12:31;2.10;;;2.00;;
12703;SDS011;6416;52.182;7.650;2023-02-19T09:14:57;2.80;;;2.27;;
12703;SDS011;6416;52.182;7.650;2023-02-19T09:17:22;2.40;;;2.20;;
12703;SDS011;6416;52.182;7.650;2023-02-19T09:19:48;2.60;;;2.40;;
12703;SDS011;6416;52.182;7.650;2023-02-19T09:22:13;3.57;;;3.27;;
12703;SDS011;6416;52.182;7.650;2023-02-19T09:24:38;2.73;;;2.53;;
12703;SDS011;6416;52.182;7.650;2023-02-19T09:27:04;2.43;;;2.23;;
12703;SDS011;6416;52.182;7.650;2023-02-19T09:29:29;2.50;;;2.30;;
12703;SDS011;6416;52.182;7.650;2023-02-19T09:31:58;2.43;;;2.23;;
12703;SDS011;6416;52.182;7.650;2023-02-19T09:34:26;2.40;;;2.20;;
12703;SDS011;6416;52.182;7.650;2023-02-19T09:36:52;2.40;;;2.20;;
12703;SDS011;6416;52.182;7.650;2023-02-19T09:39:19;2.30;;;2.10;;
12703;SDS011;6416;52.182;7.650;2023-02-19T09:41:48;2.30;;;2.10;;
12703;SDS011;6416;52.182;7.650;2023-02-19T09:44:38;3.03;;;2.03;;
12703;SDS011;6416;52.182;7.650;2023-02-19T09:47:24;1.67;;;1.57;;
12703;SDS011;6416;52.182;7.650;2023-02-19T09:49:53;1.67;;;1.57;;
12703;SDS011;6416;52.182;7.650;2023-02-19T09:52:34;1.60;;;1.50;;
12703;SDS011;6416;52.182;7.650;2023-02-19T09:55:14;1.53;;;1.43;;
12703;SDS011;6416;52.182;7.650;2023-02-19T09:57:51;1.77;;;1.67;;
12703;SDS011;6416;52.182;7.650;2023-02-19T10:00:24;1.70;;;1.60;;
12703;SDS011;6416;52.182;7.650;2023-02-19T10:02:53;2.00;;;1.87;;
12703;SDS011;6416;52.182;7.650;2023-02-19T10:05:26;2.00;;;1.90;;
12703;SDS011;6416;52.182;7.650;2023-02-19T10:07:52;2.17;;;1.90;;
12703;SDS011;6416;52.182;7.650;2023-02-19T10:10:24;2.23;;;1.90;;
12703;SDS011;6416;52.182;7.650;2023-02-19T10:12:51;2.50;;;2.30;;
12703;SDS011;6416;52.182;7.650;2023-02-19T10:15:37;1.97;;;1.87;;
12703;SDS011;6416;52.182;7.650;2023-02-19T10:18:08;1.90;;;1.80;;
12703;SDS011;6416;52.182;7.650;2023-02-19T10:20:33;2.10;;;2.00;;
12703;SDS011;6416;52.182;7.650;2023-02-19T10:23:00;1.97;;;1.87;;
12703;SDS011;6416;52.182;7.650;2023-02-19T10:25:30;2.10;;;1.90;;
12703;SDS011;6416;52.182;7.650;2023-02-19T10:27:57;1.93;;;1.83;;
12703;SDS011;6416;52.182;7.650;2023-02-19T10:30:25;2.00;;;1.90;;
12703;SDS011;6416;52.182;7.650;2023-02-19T10:33:12;2.20;;;2.10;;
12703;SDS011;6416;52.182;7.650;2023-02-19T10:36:14;3.07;;;2.30;;
12703;SDS011;6416;52.182;7.650;2023-02-19T10:38:43;1.80;;;1.70;;
12703;SDS011;6416;52.182;7.650;2023-02-19T10:41:12;1.97;;;1.87;;
12703;SDS011;6416;52.182;7.650;2023-02-19T10:43:41;1.97;;;1.87;;
12703;SDS011;6416;52.182;7.650;2023-02-19T10:49:00;2.20;;;2.00;;
12703;SDS011;6416;52.182;7.650;2023-02-19T10:51:32;1.80;;;1.70;;
12703;SDS011;6416;52.182;7.650;2023-02-19T10:54:04;2.60;;;1.67;;
12703;SDS011;6416;52.182;7.650;2023-02-19T10:56:39;1.60;;;1.47;;
12703;SDS011;6416;52.182;7.650;2023-02-19T11:01:55;1.83;;;1.73;;
12703;SDS011;6416;52.182;7.650;2023-02-19T11:04:21;2.07;;;1.97;;
12703;SDS011;6416;52.182;7.650;2023-02-19T11:06:47;1.63;;;1.53;;
12703;SDS011;6416;52.182;7.650;2023-02-19T11:09:27;1.90;;;1.80;;
12703;SDS011;6416;52.182;7.650;2023-02-19T11:11:56;1.83;;;1.73;;
12703;SDS011;6416;52.182;7.650;2023-02-19T11:14:23;1.90;;;1.80;;
12703;SDS011;6416;52.182;7.650;2023-02-19T11:16:53;1.90;;;1.80;;
12703;SDS011;6416;52.182;7.650;2023-02-19T11:19:34;1.92;;;1.83;;
12703;SDS011;6416;52.182;7.650;2023-02-19T11:27:53;1.88;;;1.77;;
12703;SDS011;6416;52.182;7.650;2023-02-19T11:30:42;3.03;;;2.10;;
12703;SDS011;6416;52.182;7.650;2023-02-19T11:35:42;2.10;;;2.00;;
12703;SDS011;6416;52.182;7.650;2023-02-19T11:38:12;2.30;;;2.10;;
12703;SDS011;6416;52.182;7.650;2023-02-19T11:40:41;2.60;;;2.40;;
12703;SDS011;6416;52.182;7.650;2023-02-19T11:46:16;2.45;;;2.25;;
12703;SDS011;6416;52.182;7.650;2023-02-19T11:48:54;2.42;;;2.22;;
12703;SDS011;6416;52.182;7.650;2023-02-19T11:54:14;2.60;;;2.40;;
12703;SDS011;6416;52.182;7.650;2023-02-19T11:58:11;2.47;;;2.28;;
12703;SDS011;6416;52.182;7.650;2023-02-19T12:05:46;7.10;;;5.63;;
12703;SDS011;6416;52.182;7.650;2023-02-19T12:14:15;3.53;;;3.22;;
12703;SDS011;6416;52.182;7.650;2023-02-19T12:17:03;3.40;;;3.10;;
12703;SDS011;6416;52.182;7.650;2023-02-19T12:22:18;3.10;;;2.90;;
12703;SDS011;6416;52.182;7.650;2023-02-19T12:25:48;2.90;;;2.70;;
12703;SDS011;6416;52.182;7.650;2023-02-19T12:27:48;2.72;;;2.53;;
12703;SDS011;6416;52.182;7.650;2023-02-19T12:35:45;2.80;;;2.50;;
12703;SDS011;6416;52.182;7.650;2023-02-19T12:43:52;2.50;;;2.30;;
12703;SDS011;6416;52.182;7.650;2023-02-19T12:46:28;2.95;;;2.50;;
12703;SDS011;6416;52.182;7.650;2023-02-19T12:49:02;3.58;;;3.28;;
12703;SDS011;6416;52.182;7.650;2023-02-19T12:51:49;2.88;;;2.67;;
12703;SDS011;6416;52.182;7.650;2023-02-19T12:54:24;2.20;;;2.10;;
12703;SDS011;6416;52.182;7.650;2023-02-19T12:59:23;3.60;;;2.97;;
12703;SDS011;6416;52.182;7.650;2023-02-19T13:04:28;4.28;;;2.53;;
12703;SDS011;6416;52.182;7.650;2023-02-19T13:07:04;2.58;;;2.38;;
12703;SDS011;6416;52.182;7.650;2023-02-19T13:09:39;2.53;;;2.08;;
12703;SDS011;6416;52.182;7.650;2023-02-19T13:14:38;2.58;;;2.38;;
12703;SDS011;6416;52.182;7.650;2023-02-19T13:17:18;2.90;;;2.70;;
12703;SDS011;6416;52.182;7.650;2023-02-19T13:19:49;2.45;;;2.28;;
12703;SDS011;6416;52.182;7.650;2023-02-19T13:22:30;3.72;;;3.28;;
12703;SDS011;6416;52.182;7.650;2023-02-19T13:25:03;3.15;;;2.85;;
12703;SDS011;6416;52.182;7.650;2023-02-19T13:30:24;2.47;;;2.28;;
12703;SDS011;6416;52.182;7.650;2023-02-19T13:32:59;1.98;;;1.88;;
12703;SDS011;6416;52.182;7.650;2023-02-19T13:38:25;1.60;;;1.50;;
12703;SDS011;6416;52.182;7.650;2023-02-19T13:40:52;1.90;;;1.80;;
12703;SDS011;6416;52.182;7.650;2023-02-19T13:43:27;1.70;;;1.60;;
12703;SDS011;6416;52.182;7.650;2023-02-19T13:45:56;1.67;;;1.57;;
12703;SDS011;6416;52.182;7.650;2023-02-19T13:48:27;1.50;;;1.40;;
12703;SDS011;6416;52.182;7.650;2023-02-19T13:56:34;2.00;;;1.80;;
12703;SDS011;6416;52.182;7.650;2023-02-19T14:12:02;2.07;;;1.87;;
12703;SDS011;6416;52.182;7.650;2023-02-19T14:14:42;2.40;;;2.20;;
12703;SDS011;6416;52.182;7.650;2023-02-19T14:22:41;2.20;;;2.00;;
12703;SDS011;6416;52.182;7.650;2023-02-19T14:25:07;2.13;;;1.80;;
12703;SDS011;6416;52.182;7.650;2023-02-19T14:27:45;2.33;;;2.00;;
12703;SDS011;6416;52.182;7.650;2023-02-19T14:30:11;2.20;;;2.00;;
12703;SDS011;6416;52.182;7.650;2023-02-19T14:32:38;3.57;;;2.00;;
12703;SDS011;6416;52.182;7.650;2023-02-19T14:35:05;1.57;;;1.47;;
12703;SDS011;6416;52.182;7.650;2023-02-19T14:37:31;1.70;;;1.60;;
12703;SDS011;6416;52.182;7.650;2023-02-19T14:39:57;1.83;;;1.60;;
12703;SDS011;6416;52.182;7.650;2023-02-19T14:42:23;1.77;;;1.67;;
12703;SDS011;6416;52.182;7.650;2023-02-19T14:44:54;2.07;;;1.70;;
12703;SDS011;6416;52.182;7.650;2023-02-19T14:47:22;1.57;;;1.47;;
12703;SDS011;6416;52.182;7.650;2023-02-19T14:49:51;1.90;;;1.80;;
12703;SDS011;6416;52.182;7.650;2023-02-19T14:52:19;1.70;;;1.60;;
12703;SDS011;6416;52.182;7.650;2023-02-19T14:55:00;1.50;;;1.40;;
12703;SDS011;6416;52.182;7.650;2023-02-19T14:57:33;1.67;;;1.57;;
12703;SDS011;6416;52.182;7.650;2023-02-19T15:00:18;1.60;;;1.50;;
12703;SDS011;6416;52.182;7.650;2023-02-19T15:02:44;1.43;;;1.33;;
12703;SDS011;6416;52.182;7.650;2023-02-19T15:05:16;1.10;;;1.00;;
12703;SDS011;6416;52.182;7.650;2023-02-19T15:07:45;1.30;;;1.20;;
12703;SDS011;6416;52.182;7.650;2023-02-19T15:10:11;0.97;;;0.97;;
12703;SDS011;6416;52.182;7.650;2023-02-19T15:12:43;1.40;;;1.30;;
12703;SDS011;6416;52.182;7.650;2023-02-19T15:15:17;1.30;;;1.20;;
12703;SDS011;6416;52.182;7.650;2023-02-19T15:17:46;1.03;;;1.00;;
12703;SDS011;6416;52.182;7.650;2023-02-19T15:20:15;1.13;;;1.03;;
12703;SDS011;6416;52.182;7.650;2023-02-19T15:22:43;1.30;;;1.20;;
12703;SDS011;6416;52.182;7.650;2023-02-19T15:25:11;1.40;;;1.00;;
12703;SDS011;6416;52.182;7.650;2023-02-19T15:27:41;1.20;;;1.10;;
12703;SDS011;6416;52.182;7.650;2023-02-19T15:30:28;1.10;;;1.00;;
12703;SDS011;6416;52.182;7.650;2023-02-19T15:35:20;1.90;;;1.20;;
12703;SDS011;6416;52.182;7.650;2023-02-19T15:37:46;0.90;;;0.90;;
12703;SDS011;6416;52.182;7.650;2023-02-19T15:40:11;1.30;;;1.10;;
12703;SDS011;6416;52.182;7.650;2023-02-19T15:42:38;1.27;;;1.13;;
12703;SDS011;6416;52.182;7.650;2023-02-19T15:45:13;1.57;;;1.33;;
12703;SDS011;6416;52.182;7.650;2023-02-19T15:47:50;1.23;;;1.13;;
12703;SDS011;6416;52.182;7.650;2023-02-19T15:50:28;1.77;;;1.13;;
12703;SDS011;6416;52.182;7.650;2023-02-19T15:53:02;1.97;;;1.30;;
12703;SDS011;6416;52.182;7.650;2023-02-19T15:55:38;1.50;;;1.20;;
12703;SDS011;6416;52.182;7.650;2023-02-19T15:58:21;1.20;;;1.10;;
12703;SDS011;6416;52.182;7.650;2023-02-19T16:03:38;3.67;;;1.30;;
12703;SDS011;6416;52.182;7.650;2023-02-19T16:06:07;1.20;;;1.10;;
12703;SDS011;6416;52.182;7.650;2023-02-19T16:08:36;1.27;;;1.17;;
12703;SDS011;6416;52.182;7.650;2023-02-19T16:11:04;2.33;;;1.10;;
12703;SDS011;6416;52.182;7.650;2023-02-19T16:13:49;1.60;;;1.27;;
12703;SDS011;6416;52.182;7.650;2023-02-19T16:16:23;2.83;;;1.30;;
12703;SDS011;6416;52.182;7.650;2023-02-19T16:18:55;2.90;;;1.37;;
12703;SDS011;6416;52.182;7.650;2023-02-19T16:21:22;1.87;;;1.23;;
12703;SDS011;6416;52.182;7.650;2023-02-19T16:23:51;2.57;;;1.77;;
12703;SDS011;6416;52.182;7.650;2023-02-19T16:26:25;3.40;;;2.67;;
12703;SDS011;6416;52.182;7.650;2023-02-19T16:28:51;1.70;;;1.60;;
12703;SDS011;6416;52.182;7.650;2023-02-19T16:31:19;2.13;;;1.80;;
12703;SDS011;6416;52.182;7.650;2023-02-19T16:33:47;2.13;;;1.40;;
12703;SDS011;6416;52.182;7.650;2023-02-19T16:39:11;2.10;;;1.90;;
12703;SDS011;6416;52.182;7.650;2023-02-19T16:44:35;1.50;;;1.40;;
12703;SDS011;6416;52.182;7.650;2023-02-19T16:47:04;1.83;;;1.63;;
12703;SDS011;6416;52.182;7.650;2023-02-19T16:49:42;2.37;;;1.83;;
12703;SDS011;6416;52.182;7.650;2023-02-19T16:52:08;2.20;;;2.00;;
12703;SDS011;6416;52.182;7.650;2023-02-19T16:54:38;1.90;;;1.70;;
12703;SDS011;6416;52.182;7.650;2023-02-19T16:57:03;2.43;;;1.47;;
12703;SDS011;6416;52.182;7.650;2023-02-19T16:59:29;1.87;;;1.47;;
12703;SDS011;6416;52.182;7.650;2023-02-19T17:01:54;1.73;;;1.40;;
12703;SDS011;6416;52.182;7.650;2023-02-19T17:04:20;3.07;;;1.67;;
12703;SDS011;6416;52.182;7.650;2023-02-19T17:06:46;1.60;;;1.50;;
12703;SDS011;6416;52.182;7.650;2023-02-19T17:09:11;1.90;;;1.80;;
12703;SDS011;6416;52.182;7.650;2023-02-19T17:11:37;1.80;;;1.70;;
12703;SDS011;6416;52.182;7.650;2023-02-19T17:14:02;1.70;;;1.60;;